Time;durP1;ratioP1;P1;durP2;ratioP2;P2;SDS_P1;SDS_P2;PMS_P1;PMS_P2;Temp;Humidity;BMP_temperature;BMP_pressure;BME280_temperature;BME280_humidity;BME280_pressure;Samples;Min_cycle;Max_cycle;Signal;HPM_P1;HPM_P2
2022/12/05 00:00:35;;;;;;;2.95;2.65;;;;;;;;;;5072788;28;20111;-60
2022/12/05 00:03:05;;;;;;;3.35;3.05;;;;;;;;;;5072846;28;20464;-58
2022/12/05 00:05:30;;;;;;;3.77;3.37;;;;;;;;;;5072432;28;20024;-59
2022/12/05 00:07:56;;;;;;;3.40;3.10;;;;;;;;;;5072709;28;20074;-59
2022/12/05 00:10:22;;;;;;;3.85;3.05;;;;;;;;;;5072430;28;20111;-59
2022/12/05 00:12:47;;;;;;;3.30;3.00;;;;;;;;;;5072515;28;20029;-60
2022/12/05 00:15:13;;;;;;;3.15;2.85;;;;;;;;;;5071021;28;20052;-59
2022/12/05 00:17:39;;;;;;;3.15;2.85;;;;;;;;;;5070508;28;20107;-60
2022/12/05 00:20:06;;;;;;;3.30;3.00;;;;;;;;;;5070517;28;20072;-59
2022/12/05 00:22:36;;;;;;;3.10;2.80;;;;;;;;;;5071323;28;20039;-59
2022/12/05 00:25:02;;;;;;;3.73;3.10;;;;;;;;;;5071475;28;20028;-61
2022/12/05 00:27:27;;;;;;;4.32;3.17;;;;;;;;;;5070675;28;20269;-58
2022/12/05 00:29:53;;;;;;;3.90;3.08;;;;;;;;;;5071807;28;20024;-59
2022/12/05 00:32:18;;;;;;;4.05;3.30;;;;;;;;;;5071114;28;20026;-59
2022/12/05 00:34:44;;;;;;;3.42;3.13;;;;;;;;;;5072180;28;20024;-59
2022/12/05 00:37:09;;;;;;;3.25;2.95;;;;;;;;;;5072315;28;20020;-60
2022/12/05 00:39:35;;;;;;;3.13;2.70;;;;;;;;;;5072146;28;20384;-59
2022/12/05 00:42:00;;;;;;;4.00;3.00;;;;;;;;;;5072576;28;20028;-60
2022/12/05 00:44:26;;;;;;;3.47;3.17;;;;;;;;;;5072137;28;20028;-59
2022/12/05 00:46:51;;;;;;;3.83;3.28;;;;;;;;;;5072075;28;20086;-60
2022/12/05 00:49:17;;;;;;;4.25;3.45;;;;;;;;;;5072272;28;20060;-59
2022/12/05 00:51:43;;;;;;;3.33;2.78;;;;;;;;;;5072319;28;20384;-59
2022/12/05 00:54:12;;;;;;;3.35;2.88;;;;;;;;;;5054223;28;20491;-60
2022/12/05 00:56:37;;;;;;;3.47;2.85;;;;;;;;;;5071881;28;20078;-60
2022/12/05 00:59:04;;;;;;;3.72;2.95;;;;;;;;;;5055269;28;20028;-60
2022/12/05 01:01:35;;;;;;;3.83;2.90;;;;;;;;;;5075786;28;20052;-60
2022/12/05 01:04:05;;;;;;;4.97;2.80;;;;;;;;;;5076114;28;20024;-60
2022/12/05 01:06:31;;;;;;;4.13;2.97;;;;;;;;;;5075846;28;20107;-60
2022/12/05 01:08:57;;;;;;;5.20;2.75;;;;;;;;;;5075973;28;20029;-60
2022/12/05 01:11:24;;;;;;;4.22;2.92;;;;;;;;;;5075692;28;20028;-59
2022/12/05 01:13:49;;;;;;;3.20;2.85;;;;;;;;;;5075915;28;20031;-60
2022/12/05 01:16:20;;;;;;;3.42;3.05;;;;;;;;;;5075469;28;20021;-60
2022/12/05 01:18:46;;;;;;;3.67;3.03;;;;;;;;;;5075298;28;20515;-60
2022/12/05 01:21:12;;;;;;;5.10;3.03;;;;;;;;;;5075466;28;20032;-60
2022/12/05 01:23:38;;;;;;;3.40;3.08;;;;;;;;;;5075423;28;20094;-60
2022/12/05 01:26:12;;;;;;;3.45;3.15;;;;;;;;;;5075388;28;20035;-59
2022/12/05 01:28:39;;;;;;;3.00;2.70;;;;;;;;;;5075408;28;20406;-59
2022/12/05 01:31:25;;;;;;;3.08;2.78;;;;;;;;;;5075322;28;20492;-59
2022/12/05 01:33:53;;;;;;;2.72;2.53;;;;;;;;;;5075280;28;20031;-60
2022/12/05 01:36:19;;;;;;;3.03;2.72;;;;;;;;;;5075160;28;20020;-59
2022/12/05 01:38:44;;;;;;;3.05;2.75;;;;;;;;;;5075006;28;20036;-59
2022/12/05 01:41:16;;;;;;;3.05;2.75;;;;;;;;;;5075167;28;20031;-59
2022/12/05 01:44:01;;;;;;;3.30;3.00;;;;;;;;;;5075109;28;20502;-59
2022/12/05 01:46:30;;;;;;;3.75;2.80;;;;;;;;;;5075100;28;20024;-59
2022/12/05 01:49:02;;;;;;;3.03;2.58;;;;;;;;;;5074993;28;20537;-59
2022/12/05 01:51:29;;;;;;;3.53;3.20;;;;;;;;;;5074894;28;20025;-59
2022/12/05 01:53:55;;;;;;;4.97;2.67;;;;;;;;;;5075263;28;20055;-60
2022/12/05 01:56:20;;;;;;;3.08;2.78;;;;;;;;;;5074919;28;20055;-59
2022/12/05 01:58:47;;;;;;;3.00;2.70;;;;;;;;;;5075061;28;20071;-60
2022/12/05 02:01:15;;;;;;;3.03;2.70;;;;;;;;;;5074742;28;20028;-60
2022/12/05 02:03:43;;;;;;;3.17;2.90;;;;;;;;;;5074849;28;20021;-60
2022/12/05 02:06:10;;;;;;;3.33;2.75;;;;;;;;;;5074580;28;20383;-60
2022/12/05 02:08:36;;;;;;;2.72;2.45;;;;;;;;;;5074962;28;20035;-60
2022/12/05 02:11:06;;;;;;;3.45;2.75;;;;;;;;;;5073742;28;20028;-60
2022/12/05 02:13:31;;;;;;;3.50;2.90;;;;;;;;;;5074587;28;20082;-60
2022/12/05 02:16:06;;;;;;;3.63;3.10;;;;;;;;;;5074568;28;20025;-60
2022/12/05 02:18:52;;;;;;;3.20;2.72;;;;;;;;;;5074246;28;20029;-60
2022/12/05 02:21:23;;;;;;;3.10;2.80;;;;;;;;;;5056487;28;20024;-60
2022/12/05 02:24:19;;;;;;;3.70;2.55;;;;;;;;;;5074539;28;20098;-60
2022/12/05 02:27:16;;;;;;;3.45;2.55;;;;;;;;;;5074294;28;20067;-60
2022/12/05 02:30:03;;;;;;;2.97;2.67;;;;;;;;;;5074521;28;20453;-58
2022/12/05 02:32:31;;;;;;;3.10;2.80;;;;;;;;;;5074294;28;20024;-58
2022/12/05 02:35:28;;;;;;;2.95;2.63;;;;;;;;;;5056144;28;20035;-58
2022/12/05 02:38:22;;;;;;;2.72;2.53;;;;;;;;;;5074036;28;20032;-59
2022/12/05 02:41:09;;;;;;;2.80;2.53;;;;;;;;;;5074128;28;20043;-58
2022/12/05 02:43:40;;;;;;;3.10;2.80;;;;;;;;;;5074012;28;20032;-59
2022/12/05 02:46:21;;;;;;;2.83;2.47;;;;;;;;;;5074337;28;20059;-59
2022/12/05 02:48:48;;;;;;;;;;;;;;;;;;5074516;28;20028;-59
2022/12/05 02:51:18;;;;;;;3.00;2.67;;;;;;;;;;5073922;28;19913;-59
2022/12/05 02:53:44;;;;;;;;;;;;;;;;;;5074329;28;20115;-59
2022/12/05 02:56:10;;;;;;;3.55;2.67;;;;;;;;;;5073703;28;19912;-59
2022/12/05 02:59:02;;;;;;;2.78;2.50;;;;;;;;;;5039090;28;20102;-58
2022/12/05 03:01:31;;;;;;;2.80;2.50;;;;;;;;;;5069712;28;20037;-59
2022/12/05 03:03:58;;;;;;;3.13;2.65;;;;;;;;;;5073571;28;20024;-59
2022/12/05 03:06:33;;;;;;;2.80;2.55;;;;;;;;;;5073670;28;20135;-59
2022/12/05 03:09:05;;;;;;;2.65;2.40;;;;;;;;;;5073517;28;20024;-58
2022/12/05 03:11:41;;;;;;;2.90;2.60;;;;;;;;;;5073686;28;20024;-59
2022/12/05 03:14:17;;;;;;;2.88;2.50;;;;;;;;;;5073445;28;20024;-59
2022/12/05 03:16:49;;;;;;;2.70;2.50;;;;;;;;;;5073324;28;20503;-59
2022/12/05 03:19:42;;;;;;;3.03;2.50;;;;;;;;;;5073137;28;20412;-59
2022/12/05 03:22:21;;;;;;;2.50;2.30;;;;;;;;;;5072745;28;20040;-59
2022/12/05 03:24:47;;;;;;;2.70;2.50;;;;;;;;;;5073297;28;20028;-59
2022/12/05 03:27:22;;;;;;;3.03;2.70;;;;;;;;;;5073497;28;20012;-59
2022/12/05 03:30:02;;;;;;;2.75;2.50;;;;;;;;;;5073414;28;20036;-59
2022/12/05 03:33:00;;;;;;;3.22;2.50;;;;;;;;;;5073039;28;20350;-59
2022/12/05 03:35:36;;;;;;;3.35;2.58;;;;;;;;;;5073052;28;20476;-59
2022/12/05 03:38:16;;;;;;;3.40;2.67;;;;;;;;;;5072824;28;20068;-59
2022/12/05 03:40:52;;;;;;;;;;;;;;;;;;5073373;28;20051;-59
2022/12/05 03:43:51;;;;;;;3.00;2.60;;;;;;;;;;5072959;28;20017;-59
2022/12/05 03:46:27;;;;;;;3.55;2.53;;;;;;;;;;5072855;28;20028;-60
2022/12/05 03:49:29;;;;;;;3.08;2.75;;;;;;;;;;5072846;28;20071;-60
2022/12/05 03:52:00;;;;;;;3.50;2.60;;;;;;;;;;5072695;28;20040;-60
2022/12/05 03:54:39;;;;;;;2.63;2.40;;;;;;;;;;5072725;28;20024;-59
2022/12/05 03:57:14;;;;;;;3.25;2.50;;;;;;;;;;5072623;28;20028;-59
2022/12/05 03:59:54;;;;;;;3.13;2.78;;;;;;;;;;5072824;28;20032;-59
2022/12/05 04:02:31;;;;;;;2.95;2.60;;;;;;;;;;5054672;28;20091;-59
2022/12/05 04:05:07;;;;;;;2.50;2.30;;;;;;;;;;5072857;28;20035;-59
2022/12/05 04:07:37;;;;;;;3.03;2.28;;;;;;;;;;5072757;28;20035;-59
2022/12/05 04:10:08;;;;;;;2.40;2.20;;;;;;;;;;5072880;28;20031;-58
2022/12/05 04:12:35;;;;;;;2.92;2.55;;;;;;;;;;5072544;28;20376;-59
2022/12/05 04:15:15;;;;;;;2.92;2.70;;;;;;;;;;5072310;28;20025;-60
2022/12/05 04:17:55;;;;;;;;;;;;;;;;;;5073106;28;20049;-60
2022/12/05 04:23:14;;;;;;;2.80;2.55;;;;;;;;;;5072470;28;20039;-60
2022/12/05 04:26:10;;;;;;;2.70;2.50;;;;;;;;;;5072346;28;20361;-60
2022/12/05 04:28:45;;;;;;;2.50;2.30;;;;;;;;;;5072278;28;20452;-60
2022/12/05 04:31:20;;;;;;;3.33;2.80;;;;;;;;;;5072362;28;20028;-59
2022/12/05 04:34:04;;;;;;;3.00;2.60;;;;;;;;;;5074704;28;20036;-60
2022/12/05 04:36:44;;;;;;;2.60;2.40;;;;;;;;;;5078789;28;20559;-59
2022/12/05 04:39:15;;;;;;;2.60;2.40;;;;;;;;;;5078864;28;20028;-59
2022/12/05 04:41:56;;;;;;;2.80;2.50;;;;;;;;;;5078771;28;20024;-60
2022/12/05 04:44:28;;;;;;;2.53;2.30;;;;;;;;;;5078934;28;20020;-60
2022/12/05 04:46:56;;;;;;;2.58;2.30;;;;;;;;;;5079145;28;20021;-60
2022/12/05 04:49:25;;;;;;;3.92;2.67;;;;;;;;;;5078766;28;20032;-59
2022/12/05 04:51:56;;;;;;;2.73;2.47;;;;;;;;;;5078842;28;20112;-62
2022/12/05 04:54:31;;;;;;;2.50;2.30;;;;;;;;;;5078794;28;20071;-60
2022/12/05 04:57:06;;;;;;;2.85;2.45;;;;;;;;;;5078990;28;20099;-60
2022/12/05 04:59:32;;;;;;;2.50;2.30;;;;;;;;;;5078999;28;20039;-60
2022/12/05 05:02:05;;;;;;;3.33;2.58;;;;;;;;;;5078756;28;20032;-60
2022/12/05 05:04:42;;;;;;;2.90;2.60;;;;;;;;;;5078555;28;20017;-60
2022/12/05 05:07:10;;;;;;;2.47;2.28;;;;;;;;;;5078641;28;20025;-59
2022/12/05 05:09:36;;;;;;;3.53;2.25;;;;;;;;;;5078848;28;20017;-60
2022/12/05 05:12:02;;;;;;;2.97;2.42;;;;;;;;;;5078647;28;20094;-60
2022/12/05 05:14:28;;;;;;;2.08;1.90;;;;;;;;;;5078748;28;20025;-60
2022/12/05 05:16:54;;;;;;;2.83;2.38;;;;;;;;;;5078530;28;20115;-60
2022/12/05 05:19:20;;;;;;;2.50;2.30;;;;;;;;;;5078001;28;20144;-59
2022/12/05 05:21:47;;;;;;;2.75;2.42;;;;;;;;;;5078499;28;20099;-59
2022/12/05 05:24:14;;;;;;;2.65;2.15;;;;;;;;;;5078674;28;20028;-59
2022/12/05 05:26:42;;;;;;;2.42;2.22;;;;;;;;;;5078321;28;20112;-59
2022/12/05 05:29:08;;;;;;;3.72;2.47;;;;;;;;;;5078367;28;20511;-60
2022/12/05 05:31:35;;;;;;;2.42;2.22;;;;;;;;;;5078603;28;20028;-60
2022/12/05 05:34:01;;;;;;;2.85;2.38;;;;;;;;;;5078566;28;20028;-59
2022/12/05 05:36:27;;;;;;;2.67;2.40;;;;;;;;;;5078621;28;20498;-60
2022/12/05 05:38:58;;;;;;;2.30;2.10;;;;;;;;;;5078171;28;20392;-60
2022/12/05 05:41:31;;;;;;;2.33;2.13;;;;;;;;;;5078299;28;20028;-61
2022/12/05 05:43:58;;;;;;;2.50;2.30;;;;;;;;;;5078337;28;20028;-61
2022/12/05 05:46:27;;;;;;;3.05;2.50;;;;;;;;;;5074482;28;20021;-61
2022/12/05 05:48:53;;;;;;;2.50;2.30;;;;;;;;;;5075014;28;20017;-60
2022/12/05 05:51:22;;;;;;;2.55;2.35;;;;;;;;;;5075062;28;20021;-61
2022/12/05 05:53:48;;;;;;;2.30;2.10;;;;;;;;;;5074824;28;20044;-60
2022/12/05 05:56:18;;;;;;;2.45;2.25;;;;;;;;;;5074922;28;20020;-61
2022/12/05 05:58:44;;;;;;;2.78;2.40;;;;;;;;;;5040407;28;20028;-60
2022/12/05 06:01:21;;;;;;;2.58;2.38;;;;;;;;;;5056773;28;20480;-61
2022/12/05 06:03:47;;;;;;;2.53;2.20;;;;;;;;;;5074813;28;20025;-60
2022/12/05 06:06:13;;;;;;;2.55;2.30;;;;;;;;;;5074822;28;20098;-61
2022/12/05 06:08:42;;;;;;;2.85;2.30;;;;;;;;;;5074656;28;20043;-61
2022/12/05 06:11:27;;;;;;;2.85;2.47;;;;;;;;;;5074578;28;20039;-61
2022/12/05 06:13:59;;;;;;;2.83;2.28;;;;;;;;;;5040034;28;20052;-60
2022/12/05 06:16:25;;;;;;;2.50;2.30;;;;;;;;;;5074728;28;20029;-61
2022/12/05 06:18:51;;;;;;;2.38;2.17;;;;;;;;;;5039685;28;20450;-59
2022/12/05 06:21:17;;;;;;;2.58;2.38;;;;;;;;;;5074435;28;20036;-59
2022/12/05 06:23:43;;;;;;;2.45;2.17;;;;;;;;;;5074346;28;20372;-59
2022/12/05 06:26:11;;;;;;;2.35;2.15;;;;;;;;;;5056361;28;20029;-60
2022/12/05 06:28:38;;;;;;;2.63;2.42;;;;;;;;;;5074201;28;20029;-60
2022/12/05 06:31:09;;;;;;;2.50;2.30;;;;;;;;;;5074488;28;20408;-60
2022/12/05 06:33:35;;;;;;;2.40;2.17;;;;;;;;;;5074429;28;20025;-60
2022/12/05 06:36:03;;;;;;;2.42;2.17;;;;;;;;;;5074114;28;20377;-59
2022/12/05 06:38:29;;;;;;;2.42;2.00;;;;;;;;;;5073714;28;20038;-60
2022/12/05 06:40:55;;;;;;;2.35;2.13;;;;;;;;;;5074078;28;20107;-60
2022/12/05 06:43:20;;;;;;;3.75;2.25;;;;;;;;;;5073883;28;20032;-61
2022/12/05 06:45:46;;;;;;;2.30;2.10;;;;;;;;;;5056188;28;20035;-60
2022/12/05 06:48:11;;;;;;;2.40;2.20;;;;;;;;;;5073777;28;20376;-60
2022/12/05 06:50:37;;;;;;;2.53;2.13;;;;;;;;;;5073742;28;20052;-61
2022/12/05 06:53:02;;;;;;;2.33;2.13;;;;;;;;;;5056247;28;20031;-61
2022/12/05 06:55:28;;;;;;;2.60;2.40;;;;;;;;;;5073947;28;20028;-61
2022/12/05 06:57:54;;;;;;;2.67;2.30;;;;;;;;;;5055308;28;20472;-61
2022/12/05 07:03:03;;;;;;;2.30;2.10;;;;;;;;;;5073926;28;20031;-60
2022/12/05 07:05:29;;;;;;;2.33;2.13;;;;;;;;;;5073351;28;20107;-59
2022/12/05 07:07:54;;;;;;;3.15;1.98;;;;;;;;;;5073608;28;20031;-60
2022/12/05 07:10:20;;;;;;;2.47;2.15;;;;;;;;;;5073409;28;20012;-61
2022/12/05 07:12:45;;;;;;;2.20;2.00;;;;;;;;;;5073286;28;20048;-60
2022/12/05 07:15:11;;;;;;;2.63;2.10;;;;;;;;;;5073615;28;20251;-61
2022/12/05 07:17:38;;;;;;;2.15;1.95;;;;;;;;;;5073269;28;20032;-60
2022/12/05 07:20:05;;;;;;;2.20;2.00;;;;;;;;;;5073057;28;20040;-59
2022/12/05 07:22:34;;;;;;;2.70;2.40;;;;;;;;;;5073257;28;20067;-60
2022/12/05 07:25:00;;;;;;;2.30;2.10;;;;;;;;;;5073071;28;20103;-59
2022/12/05 07:27:25;;;;;;;2.47;2.20;;;;;;;;;;5073172;28;20108;-60
2022/12/05 07:29:51;;;;;;;2.25;2.05;;;;;;;;;;5073013;28;20029;-59
2022/12/05 07:32:16;;;;;;;2.40;2.20;;;;;;;;;;5073096;28;20089;-59
2022/12/05 07:34:42;;;;;;;2.60;2.40;;;;;;;;;;5073134;28;20476;-61
2022/12/05 07:37:07;;;;;;;1.98;1.80;;;;;;;;;;5072966;28;20430;-61
2022/12/05 07:39:33;;;;;;;2.55;2.30;;;;;;;;;;5072880;28;20302;-57
2022/12/05 07:41:59;;;;;;;2.25;2.05;;;;;;;;;;5053951;28;20062;-60
2022/12/05 07:44:24;;;;;;;2.30;2.10;;;;;;;;;;5071518;28;20098;-61
2022/12/05 07:46:50;;;;;;;2.45;2.20;;;;;;;;;;5071087;28;20025;-61
2022/12/05 07:49:15;;;;;;;2.15;1.95;;;;;;;;;;5071396;28;20021;-62
2022/12/05 07:51:41;;;;;;;2.47;2.00;;;;;;;;;;5067390;28;20028;-60
2022/12/05 07:54:06;;;;;;;2.00;1.90;;;;;;;;;;5067903;28;20024;-60
2022/12/05 07:56:32;;;;;;;2.50;2.25;;;;;;;;;;5067529;28;20044;-61
2022/12/05 07:58:58;;;;;;;2.60;2.33;;;;;;;;;;5067612;28;20028;-60
2022/12/05 08:01:25;;;;;;;2.13;1.92;;;;;;;;;;5067696;28;20024;-58
2022/12/05 08:03:52;;;;;;;2.67;2.28;;;;;;;;;;5068522;28;20020;-57
2022/12/05 08:06:21;;;;;;;2.00;1.90;;;;;;;;;;5072527;28;20027;-60
2022/12/05 08:08:48;;;;;;;2.45;2.20;;;;;;;;;;5070644;28;20032;-60
2022/12/05 08:11:28;;;;;;;3.42;2.08;;;;;;;;;;5071645;28;20491;-59
2022/12/05 08:13:55;;;;;;;2.42;2.10;;;;;;;;;;5072263;28;20025;-62
2022/12/05 08:16:24;;;;;;;2.03;1.83;;;;;;;;;;5070884;28;20028;-61
2022/12/05 08:18:54;;;;;;;2.72;2.22;;;;;;;;;;5070586;28;20127;-61
2022/12/05 08:21:20;;;;;;;3.28;2.20;;;;;;;;;;5071212;28;20139;-61
2022/12/05 08:23:46;;;;;;;2.50;2.30;;;;;;;;;;5072234;28;20459;-61
2022/12/05 08:26:19;;;;;;;2.30;2.10;;;;;;;;;;5072260;28;20020;-58
2022/12/05 08:28:45;;;;;;;2.80;2.00;;;;;;;;;;5072493;28;20500;-58
2022/12/05 08:31:15;;;;;;;2.28;2.08;;;;;;;;;;5072140;28;20052;-59
2022/12/05 08:33:41;;;;;;;2.28;2.08;;;;;;;;;;5072415;28;20384;-60
2022/12/05 08:36:11;;;;;;;2.25;2.05;;;;;;;;;;5054253;28;20027;-59
2022/12/05 08:38:37;;;;;;;2.17;1.98;;;;;;;;;;5072022;28;20071;-58
2022/12/05 08:41:04;;;;;;;4.38;2.08;;;;;;;;;;5070744;28;20107;-59
2022/12/05 08:43:31;;;;;;;2.25;2.05;;;;;;;;;;5072385;28;20103;-62
2022/12/05 08:45:58;;;;;;;2.42;1.85;;;;;;;;;;5076240;28;20052;-61
2022/12/05 08:48:23;;;;;;;2.35;1.90;;;;;;;;;;5071988;28;20472;-61
2022/12/05 08:50:49;;;;;;;2.30;2.00;;;;;;;;;;5071904;28;20021;-59
2022/12/05 08:53:15;;;;;;;2.28;2.08;;;;;;;;;;5072055;28;20028;-59
2022/12/05 08:55:41;;;;;;;2.40;2.20;;;;;;;;;;5072012;28;20534;-60
2022/12/05 08:58:07;;;;;;;2.40;2.20;;;;;;;;;;5071736;28;20036;-59
2022/12/05 09:00:33;;;;;;;2.15;1.95;;;;;;;;;;5071745;28;20029;-61
2022/12/05 09:02:58;;;;;;;2.40;2.20;;;;;;;;;;5071915;28;20028;-61
2022/12/05 09:05:25;;;;;;;2.60;1.95;;;;;;;;;;5071720;28;20062;-61
2022/12/05 09:07:50;;;;;;;2.72;1.92;;;;;;;;;;5054199;28;20040;-60
2022/12/05 09:10:16;;;;;;;2.20;2.00;;;;;;;;;;5071812;28;20029;-60
2022/12/05 09:12:42;;;;;;;2.33;1.85;;;;;;;;;;5071818;28;20052;-60
2022/12/05 09:15:09;;;;;;;2.13;2.03;;;;;;;;;;5071675;28;20032;-58
2022/12/05 09:17:34;;;;;;;2.75;2.05;;;;;;;;;;5071505;28;20025;-59
2022/12/05 09:20:00;;;;;;;2.13;1.92;;;;;;;;;;5072642;28;20041;-60
2022/12/05 09:22:25;;;;;;;3.60;2.20;;;;;;;;;;5075538;28;20016;-59
2022/12/05 09:24:51;;;;;;;2.53;2.33;;;;;;;;;;5075622;28;20050;-59
2022/12/05 09:27:17;;;;;;;2.10;1.90;;;;;;;;;;5075306;28;20037;-60
2022/12/05 09:29:42;;;;;;;2.60;1.92;;;;;;;;;;5075275;28;20025;-60
2022/12/05 09:32:09;;;;;;;2.28;2.08;;;;;;;;;;5075553;28;20044;-60
2022/12/05 09:34:39;;;;;;;2.67;1.95;;;;;;;;;;5075352;28;20028;-61
2022/12/05 09:37:06;;;;;;;8.13;4.57;;;;;;;;;;5075219;28;20028;-59
2022/12/05 09:39:32;;;;;;;8.27;4.50;;;;;;;;;;5074994;28;20476;-58
2022/12/05 09:42:18;;;;;;;6.57;3.88;;;;;;;;;;5073887;28;20071;-61
2022/12/05 09:45:08;;;;;;;8.43;3.70;;;;;;;;;;5074958;28;20028;-60
2022/12/05 09:47:53;;;;;;;4.07;3.30;;;;;;;;;;5075421;28;20021;-60
2022/12/05 09:50:28;;;;;;;3.25;2.50;;;;;;;;;;5074978;28;20480;-60
2022/12/05 09:53:24;;;;;;;3.75;2.25;;;;;;;;;;5075335;28;20093;-60
2022/12/05 09:55:52;;;;;;;3.28;2.58;;;;;;;;;;5075079;28;20042;-61
2022/12/05 09:58:24;;;;;;;2.50;2.30;;;;;;;;;;5074796;28;20028;-60
2022/12/05 10:00:58;;;;;;;2.47;2.28;;;;;;;;;;5075087;28;20040;-61
2022/12/05 10:04:05;;;;;;;2.42;2.22;;;;;;;;;;5074811;28;20029;-60
2022/12/05 10:06:47;;;;;;;3.55;2.50;;;;;;;;;;5046397;28;20033;-60
2022/12/05 10:09:23;;;;;;;2.85;2.53;;;;;;;;;;5074675;28;20025;-60
2022/12/05 10:12:00;;;;;;;3.22;2.42;;;;;;;;;;5074659;28;20029;-60
2022/12/05 10:15:10;;;;;;;3.20;2.40;;;;;;;;;;5074707;28;20376;-61
2022/12/05 10:17:37;;;;;;;;;;;;;;;;;;5074869;28;20029;-60
2022/12/05 10:20:13;;;;;;;3.35;2.67;;;;;;;;;;5074258;28;19948;-60
2022/12/05 10:22:45;;;;;;;3.80;2.67;;;;;;;;;;5074443;28;20033;-61
2022/12/05 10:25:12;;;;;;;3.22;2.50;;;;;;;;;;5073625;28;20027;-62
2022/12/05 10:27:44;;;;;;;3.00;2.70;;;;;;;;;;5074277;28;20025;-60
2022/12/05 10:30:16;;;;;;;2.78;2.45;;;;;;;;;;5074444;28;20473;-59
2022/12/05 10:32:55;;;;;;;3.28;2.47;;;;;;;;;;5073435;28;20032;-60
2022/12/05 10:35:30;;;;;;;2.75;2.40;;;;;;;;;;5074230;28;20029;-61
2022/12/05 10:38:02;;;;;;;2.60;2.35;;;;;;;;;;5074265;28;20029;-62
2022/12/05 10:40:39;;;;;;;6.80;2.58;;;;;;;;;;5074359;28;20024;-61
2022/12/05 10:43:07;;;;;;;2.88;2.17;;;;;;;;;;5074140;28;20024;-62
2022/12/05 10:45:38;;;;;;;2.70;2.38;;;;;;;;;;5073978;28;20027;-62
2022/12/05 10:48:04;;;;;;;2.38;2.13;;;;;;;;;;5073924;28;20031;-61
2022/12/05 10:50:35;;;;;;;2.60;2.40;;;;;;;;;;5055975;28;20112;-60
2022/12/05 10:53:03;;;;;;;2.47;2.10;;;;;;;;;;5073800;28;20025;-58
2022/12/05 10:55:35;;;;;;;2.95;2.40;;;;;;;;;;5073719;28;20029;-61
2022/12/05 10:58:16;;;;;;;3.00;2.30;;;;;;;;;;5073709;28;20419;-60
2022/12/05 11:00:45;;;;;;;3.03;2.33;;;;;;;;;;5073930;28;20082;-61
2022/12/05 11:03:20;;;;;;;3.00;2.30;;;;;;;;;;5073640;28;20021;-61
2022/12/05 11:05:49;;;;;;;4.40;2.70;;;;;;;;;;5073526;28;20035;-61
2022/12/05 11:08:30;;;;;;;2.85;2.55;;;;;;;;;;5073530;28;20028;-62
2022/12/05 11:11:06;;;;;;;2.60;2.40;;;;;;;;;;5073498;28;20041;-62
2022/12/05 11:13:32;;;;;;;4.00;2.70;;;;;;;;;;5073750;28;20086;-62
2022/12/05 11:15:59;;;;;;;2.78;2.38;;;;;;;;;;5073692;28;20388;-61
2022/12/05 11:18:31;;;;;;;3.00;2.30;;;;;;;;;;5038779;28;20043;-62
2022/12/05 11:21:09;;;;;;;3.35;2.53;;;;;;;;;;5072308;28;20044;-61
2022/12/05 11:23:35;;;;;;;3.67;2.38;;;;;;;;;;5055777;28;20078;-63
2022/12/05 11:26:00;;;;;;;2.80;2.50;;;;;;;;;;5038497;28;20024;-61
2022/12/05 11:28:32;;;;;;;3.75;2.47;;;;;;;;;;5073183;28;20027;-60
2022/12/05 11:31:18;;;;;;;2.55;2.35;;;;;;;;;;5073054;28;20036;-61
2022/12/05 11:34:20;;;;;;;3.03;2.30;;;;;;;;;;5073154;28;20526;-60
2022/12/05 11:37:05;;;;;;;2.97;2.40;;;;;;;;;;5073045;28;20032;-61
2022/12/05 11:39:31;;;;;;;3.05;2.53;;;;;;;;;;5073040;28;20387;-61
2022/12/05 11:42:28;;;;;;;3.70;2.40;;;;;;;;;;5073067;28;20493;-62
2022/12/05 11:45:15;;;;;;;2.50;2.30;;;;;;;;;;5072027;28;20028;-61
2022/12/05 11:47:54;;;;;;;4.00;2.65;;;;;;;;;;5072818;28;20077;-61
2022/12/05 11:50:52;;;;;;;3.40;2.38;;;;;;;;;;5072714;28;20032;-61
2022/12/05 11:53:39;;;;;;;2.92;2.50;;;;;;;;;;5041614;28;20043;-60
2022/12/05 11:56:29;;;;;;;3.03;2.70;;;;;;;;;;5072657;28;20025;-61
2022/12/05 11:59:22;;;;;;;3.20;2.40;;;;;;;;;;5072623;28;20039;-60
2022/12/05 12:02:26;;;;;;;2.63;2.42;;;;;;;;;;5056222;28;20040;-61
2022/12/05 12:05:11;;;;;;;3.30;2.60;;;;;;;;;;5072038;28;20028;-60
2022/12/05 12:08:01;;;;;;;3.60;2.50;;;;;;;;;;5072844;28;20110;-60
2022/12/05 12:10:45;;;;;;;3.58;2.55;;;;;;;;;;5072552;28;20078;-61
2022/12/05 12:13:13;;;;;;;3.75;2.40;;;;;;;;;;5072721;28;20288;-61
2022/12/05 12:16:00;;;;;;;3.65;2.40;;;;;;;;;;5072508;28;20017;-61
2022/12/05 12:18:29;;;;;;;3.08;2.22;;;;;;;;;;5054319;28;20035;-60
2022/12/05 12:21:16;;;;;;;3.83;2.47;;;;;;;;;;5072250;28;20040;-61
2022/12/05 12:24:02;;;;;;;3.13;2.60;;;;;;;;;;5072372;28;20078;-62
2022/12/05 12:26:49;;;;;;;3.65;2.55;;;;;;;;;;5072138;28;20043;-61
2022/12/05 12:29:23;;;;;;;5.03;2.53;;;;;;;;;;5072227;28;20029;-60
2022/12/05 12:32:20;;;;;;;2.83;2.42;;;;;;;;;;5072132;28;20031;-61
2022/12/05 12:34:58;;;;;;;4.40;2.60;;;;;;;;;;5072201;28;20029;-61
2022/12/05 12:37:34;;;;;;;2.67;2.20;;;;;;;;;;5072054;28;20028;-62
2022/12/05 12:40:20;;;;;;;3.75;2.47;;;;;;;;;;5072059;28;20031;-61
2022/12/05 12:43:04;;;;;;;2.53;2.05;;;;;;;;;;5072150;28;20028;-61
2022/12/05 12:45:47;;;;;;;3.58;2.85;;;;;;;;;;5072136;28;20020;-62
2022/12/05 12:48:34;;;;;;;2.85;2.30;;;;;;;;;;5072049;28;20415;-61
2022/12/05 12:51:01;;;;;;;3.45;2.58;;;;;;;;;;5072028;28;20028;-62
2022/12/05 12:53:54;;;;;;;4.90;2.38;;;;;;;;;;5072224;28;20492;-61
2022/12/05 12:56:41;;;;;;;2.50;2.30;;;;;;;;;;5075547;28;20039;-62
2022/12/05 12:59:13;;;;;;;2.85;2.33;;;;;;;;;;5072742;28;20031;-62
2022/12/05 13:01:52;;;;;;;3.10;2.28;;;;;;;;;;5078473;28;20032;-63
2022/12/05 13:04:28;;;;;;;2.83;2.50;;;;;;;;;;5076201;28;20059;-60
2022/12/05 13:07:02;;;;;;;2.55;2.33;;;;;;;;;;5096337;28;20032;-62
2022/12/05 13:09:39;;;;;;;3.15;2.20;;;;;;;;;;5094265;28;20107;-62
2022/12/05 13:12:11;;;;;;;2.80;2.50;;;;;;;;;;5076417;28;20107;-61
2022/12/05 13:14:42;;;;;;;2.38;2.10;;;;;;;;;;5075668;28;20020;-61
2022/12/05 13:17:16;;;;;;;2.50;2.30;;;;;;;;;;5081473;28;20039;-59
2022/12/05 13:19:46;;;;;;;2.75;2.28;;;;;;;;;;5086641;28;20101;-61
2022/12/05 13:22:14;;;;;;;3.80;2.40;;;;;;;;;;5086964;28;20077;-61
2022/12/05 13:24:41;;;;;;;3.15;2.40;;;;;;;;;;5095812;28;20059;-61
2022/12/05 13:27:09;;;;;;;3.28;2.50;;;;;;;;;;5095677;28;20047;-61
2022/12/05 13:29:41;;;;;;;3.22;2.33;;;;;;;;;;5095621;28;20039;-61
2022/12/05 13:32:25;;;;;;;2.40;2.20;;;;;;;;;;5092324;28;20039;-61
2022/12/05 13:34:51;;;;;;;3.08;2.40;;;;;;;;;;5095872;28;20060;-62
2022/12/05 13:43:22;;;;;;;2.40;2.20;;;;;;;;;;5057077;28;20159;-60
2022/12/05 13:46:08;;;;;;;2.35;2.15;;;;;;;;;;5091159;28;20119;-61
2022/12/05 13:48:37;;;;;;;3.28;2.30;;;;;;;;;;5074584;28;20039;-61
2022/12/05 13:51:12;;;;;;;2.65;2.10;;;;;;;;;;5074524;28;20060;-61
2022/12/05 13:53:45;;;;;;;2.90;2.45;;;;;;;;;;5057017;28;20115;-62
2022/12/05 13:56:13;;;;;;;2.60;2.17;;;;;;;;;;5074715;28;20036;-59
2022/12/05 13:58:49;;;;;;;3.05;2.38;;;;;;;;;;5074650;28;20024;-61
2022/12/05 14:01:32;;;;;;;2.72;2.20;;;;;;;;;;5057128;28;20460;-62
2022/12/05 14:04:03;;;;;;;3.25;2.67;;;;;;;;;;5074723;28;20032;-60
2022/12/05 14:06:36;;;;;;;2.65;2.35;;;;;;;;;;5055593;28;20538;-61
2022/12/05 14:09:23;;;;;;;2.38;2.17;;;;;;;;;;5074751;28;20070;-61
2022/12/05 14:12:11;;;;;;;4.13;2.47;;;;;;;;;;5074559;28;20068;-60
2022/12/05 14:14:59;;;;;;;2.67;2.33;;;;;;;;;;5074736;28;20025;-62
2022/12/05 14:17:32;;;;;;;3.40;2.30;;;;;;;;;;5074548;28;20052;-60
2022/12/05 14:20:25;;;;;;;3.55;2.30;;;;;;;;;;5074469;28;20342;-62
2022/12/05 14:23:27;;;;;;;2.45;2.13;;;;;;;;;;5074831;28;20029;-61
2022/12/05 14:26:15;;;;;;;3.25;2.35;;;;;;;;;;5074532;28;20028;-60
2022/12/05 14:28:47;;;;;;;2.55;2.20;;;;;;;;;;5058432;28;20547;-57
2022/12/05 14:31:33;;;;;;;2.97;2.20;;;;;;;;;;5074004;28;20031;-61
2022/12/05 14:34:23;;;;;;;3.90;2.20;;;;;;;;;;5056397;28;20031;-60
2022/12/05 14:36:58;;;;;;;2.53;2.03;;;;;;;;;;5074234;28;20111;-61
2022/12/05 14:39:52;;;;;;;2.25;2.05;;;;;;;;;;5074371;28;20111;-60
2022/12/05 14:42:39;;;;;;;4.28;2.42;;;;;;;;;;5073279;28;20037;-61
2022/12/05 14:45:27;;;;;;;2.92;2.40;;;;;;;;;;5074412;28;20031;-61
2022/12/05 14:47:59;;;;;;;3.70;2.47;;;;;;;;;;5074011;28;20026;-62
2022/12/05 14:50:45;;;;;;;3.72;2.47;;;;;;;;;;5073900;28;20029;-60
2022/12/05 14:53:14;;;;;;;3.33;2.30;;;;;;;;;;5074278;28;20048;-62
2022/12/05 14:55:42;;;;;;;2.72;2.38;;;;;;;;;;5074025;28;20476;-60
2022/12/05 14:58:35;;;;;;;2.90;2.28;;;;;;;;;;5073672;28;20357;-60
2022/12/05 15:01:22;;;;;;;3.17;2.38;;;;;;;;;;5073361;28;20032;-62
2022/12/05 15:04:13;;;;;;;3.67;2.33;;;;;;;;;;5060066;28;20044;-63
2022/12/05 15:06:54;;;;;;;3.45;2.30;;;;;;;;;;5073784;28;20108;-62
2022/12/05 15:09:30;;;;;;;;;;;;;;;;;;5074075;28;20108;-61
2022/12/05 15:11:57;;;;;;;2.40;2.20;;;;;;;;;;5073519;28;20371;-61
2022/12/05 15:14:28;;;;;;;3.20;2.45;;;;;;;;;;5073575;28;20035;-61
2022/12/05 15:16:54;;;;;;;;;;;;;;;;;;5073888;28;20028;-61
2022/12/05 15:19:31;;;;;;;2.30;2.10;;;;;;;;;;5072755;28;19923;-62
2022/12/05 15:22:00;;;;;;;2.40;2.20;;;;;;;;;;5073472;28;20104;-61
2022/12/05 15:24:26;;;;;;;3.38;2.45;;;;;;;;;;5055299;28;20496;-61
2022/12/05 15:26:53;;;;;;;3.55;2.28;;;;;;;;;;5073290;28;20035;-62
2022/12/05 15:29:25;;;;;;;3.25;2.30;;;;;;;;;;5073223;28;20025;-62
2022/12/05 15:32:05;;;;;;;2.67;2.10;;;;;;;;;;5073211;28;20365;-61